Time;durP1;ratioP1;P1;durP2;ratioP2;P2;SDS_P1;SDS_P2;PMS_P1;PMS_P2;Temp;Humidity;BMP_temperature;BMP_pressure;BME280_temperature;BME280_humidity;BME280_pressure;Samples;Min_cycle;Max_cycle;Signal;HPM_P1;HPM_P2
2022/11/27 00:01:21;;;;;;;16.23;12.60;;;4.90;99.90;;;;;;5060352;28;20957;-68
2022/11/27 00:03:48;;;;;;;17.17;12.93;;;4.90;99.90;;;;;;5060948;28;20468;-70
2022/11/27 00:06:17;;;;;;;26.17;13.50;;;4.80;99.90;;;;;;5052889;28;20862;-70
2022/11/27 00:08:44;;;;;;;13.60;12.50;;;4.80;99.90;;;;;;5056041;28;20463;-70
2022/11/27 00:11:13;;;;;;;14.83;13.33;;;4.80;99.90;;;;;;5062138;28;20473;-71
2022/11/27 00:13:40;;;;;;;14.50;13.17;;;4.90;99.90;;;;;;5057815;28;20789;-71
2022/11/27 00:16:08;;;;;;;14.70;13.30;;;4.80;99.90;;;;;;5059151;28;20479;-70
2022/11/27 00:18:37;;;;;;;12.87;11.67;;;4.90;99.90;;;;;;5063092;28;20471;-70
2022/11/27 00:21:06;;;;;;;20.17;14.43;;;4.80;99.90;;;;;;5057156;28;20474;-70
2022/11/27 00:23:33;;;;;;;21.20;13.13;;;4.80;99.90;;;;;;5060377;28;20451;-69
2022/11/27 00:26:00;;;;;;;17.27;12.73;;;4.80;99.90;;;;;;5057333;28;20486;-70
2022/11/27 00:28:28;;;;;;;15.77;12.60;;;4.80;99.90;;;;;;5058388;28;20852;-68
2022/11/27 00:30:58;;;;;;;19.50;12.53;;;4.70;99.90;;;;;;5051758;28;20462;-69
2022/11/27 00:33:27;;;;;;;16.20;12.40;;;4.70;99.90;;;;;;5064609;28;20455;-69
2022/11/27 00:35:55;;;;;;;20.67;12.20;;;4.80;99.90;;;;;;5064479;28;20462;-68
2022/11/27 00:38:22;;;;;;;15.40;12.13;;;4.70;99.90;;;;;;5059904;28;20972;-68
2022/11/27 00:40:49;;;;;;;22.67;13.13;;;4.70;99.90;;;;;;5052925;28;20487;-70
2022/11/27 00:43:16;;;;;;;17.50;13.20;;;4.80;99.90;;;;;;5060398;28;20475;-69
2022/11/27 00:45:43;;;;;;;14.03;12.30;;;4.80;99.90;;;;;;5059165;28;20482;-68
2022/11/27 00:48:10;;;;;;;12.60;11.40;;;4.70;99.90;;;;;;5060644;28;20463;-70
2022/11/27 00:50:37;;;;;;;14.90;12.40;;;4.80;99.90;;;;;;5056094;28;20462;-69
2022/11/27 00:53:06;;;;;;;18.17;12.43;;;4.80;99.90;;;;;;5059564;28;20459;-70
2022/11/27 00:55:33;;;;;;;29.90;13.40;;;4.70;99.90;;;;;;5054495;28;20471;-69
2022/11/27 00:57:59;;;;;;;15.20;11.23;;;4.80;99.90;;;;;;5056756;28;20467;-67
2022/11/27 01:00:27;;;;;;;14.97;11.70;;;4.80;99.90;;;;;;5061602;28;20490;-68
2022/11/27 01:02:54;;;;;;;20.03;11.60;;;4.80;99.90;;;;;;5059269;28;20463;-70
2022/11/27 01:05:21;;;;;;;12.27;11.00;;;4.80;99.90;;;;;;5054916;28;20494;-68
2022/11/27 01:07:48;;;;;;;19.53;11.60;;;4.80;99.90;;;;;;5062548;28;20465;-69
2022/11/27 01:10:17;;;;;;;15.97;14.37;;;4.80;99.90;;;;;;5061499;28;20987;-68
2022/11/27 01:12:44;;;;;;;13.87;12.67;;;4.80;99.90;;;;;;5050923;28;20467;-67
2022/11/27 01:15:12;;;;;;;15.50;12.23;;;4.80;99.90;;;;;;5062268;28;20460;-69
2022/11/27 01:17:39;;;;;;;25.07;12.10;;;4.70;99.90;;;;;;5055458;28;20455;-69
2022/11/27 01:20:07;;;;;;;15.40;12.90;;;4.70;99.90;;;;;;5053486;28;20483;-67
2022/11/27 01:22:35;;;;;;;16.77;11.77;;;4.60;99.90;;;;;;5057369;28;20974;-68
2022/11/27 01:25:03;;;;;;;34.60;14.00;;;4.70;99.90;;;;;;5060253;28;20474;-70
2022/11/27 01:27:31;;;;;;;22.93;12.63;;;4.70;99.90;;;;;;5053527;28;20577;-69
2022/11/27 01:29:59;;;;;;;12.53;11.47;;;4.80;99.90;;;;;;5055542;28;20470;-68
2022/11/27 01:32:26;;;;;;;18.53;11.87;;;4.80;99.90;;;;;;5057058;28;20827;-70
2022/11/27 01:34:53;;;;;;;18.03;11.97;;;4.80;99.90;;;;;;5059456;28;21019;-68
2022/11/27 01:37:20;;;;;;;27.33;11.90;;;4.90;99.90;;;;;;5052064;28;20504;-68
2022/11/27 01:39:47;;;;;;;23.23;12.90;;;4.90;99.90;;;;;;5061358;28;20490;-68
2022/11/27 01:42:14;;;;;;;15.30;12.33;;;4.90;99.90;;;;;;5058937;28;20551;-70
2022/11/27 01:44:51;;;;;;;12.83;11.50;;;4.90;99.90;;;;;;5060921;28;21000;-69
2022/11/27 01:47:29;;;;;;;14.63;12.00;;;4.90;99.90;;;;;;5058289;28;21034;-69
2022/11/27 01:50:05;;;;;;;19.57;12.80;;;4.80;99.90;;;;;;5057667;28;20969;-69
2022/11/27 01:52:35;;;;;;;14.93;12.67;;;4.80;99.90;;;;;;5059005;28;20455;-68
2022/11/27 01:55:06;;;;;;;18.90;12.53;;;4.70;99.90;;;;;;5062952;28;20561;-68
2022/11/27 01:57:40;;;;;;;13.10;11.80;;;4.70;99.90;;;;;;5056454;28;20458;-69
2022/11/27 02:00:11;;;;;;;12.90;11.53;;;4.60;99.90;;;;;;5064038;28;20498;-68
2022/11/27 02:02:39;;;;;;;20.33;12.10;;;4.60;99.90;;;;;;5058513;28;21026;-70
2022/11/27 02:05:06;;;;;;;29.77;12.87;;;4.50;99.90;;;;;;5059565;28;20487;-68
2022/11/27 02:07:33;;;;;;;21.87;12.57;;;4.60;99.90;;;;;;5056983;28;20961;-69
2022/11/27 02:10:01;;;;;;;14.43;12.67;;;4.50;99.90;;;;;;5058403;28;20831;-70
2022/11/27 02:12:33;;;;;;;19.40;12.37;;;4.50;99.90;;;;;;5063249;28;20643;-69
2022/11/27 02:15:06;;;;;;;22.80;12.63;;;4.50;99.90;;;;;;5060250;28;20459;-70
2022/11/27 02:17:40;;;;;;;13.77;12.33;;;4.50;99.90;;;;;;5056171;28;20484;-67
2022/11/27 02:20:19;;;;;;;15.00;13.40;;;4.50;99.90;;;;;;5060092;28;20496;-68
2022/11/27 02:23:05;;;;;;;15.60;13.57;;;4.50;99.90;;;;;;5063699;28;20467;-66
2022/11/27 02:25:41;;;;;;;17.00;12.90;;;4.50;99.90;;;;;;5052924;28;20455;-70
2022/11/27 02:28:25;;;;;;;17.40;12.77;;;4.50;99.90;;;;;;5055422;28;20993;-70
2022/11/27 02:31:00;;;;;;;15.07;13.37;;;4.60;99.90;;;;;;5064571;28;20473;-67
2022/11/27 02:33:29;;;;;;;19.17;13.87;;;4.60;99.90;;;;;;5064486;28;20902;-68
2022/11/27 02:36:00;;;;;;;17.53;12.77;;;4.60;99.90;;;;;;5060495;28;21006;-67
2022/11/27 02:38:31;;;;;;;16.37;13.73;;;4.70;99.90;;;;;;5054221;28;20464;-70
2022/11/27 02:41:04;;;;;;;16.47;13.00;;;4.70;99.90;;;;;;5059055;28;20487;-67
2022/11/27 02:43:35;;;;;;;14.00;12.67;;;4.80;99.90;;;;;;5062669;28;20476;-68
2022/11/27 02:46:06;;;;;;;20.87;12.43;;;4.80;99.90;;;;;;5060439;28;20471;-68
2022/11/27 02:48:36;;;;;;;17.27;12.73;;;4.70;99.90;;;;;;5056996;28;20463;-70
2022/11/27 02:51:04;;;;;;;22.17;13.13;;;4.80;99.90;;;;;;5055556;28;20797;-69
2022/11/27 02:53:34;;;;;;;15.27;13.70;;;4.80;99.90;;;;;;5061436;28;20977;-69
2022/11/27 02:56:04;;;;;;;16.90;13.07;;;4.80;99.90;;;;;;5060577;28;20605;-69
2022/11/27 02:58:35;;;;;;;25.60;13.03;;;4.80;99.90;;;;;;5063415;28;20958;-67
2022/11/27 03:01:05;;;;;;;17.63;14.20;;;4.90;99.90;;;;;;5059977;28;20502;-68
2022/11/27 03:03:36;;;;;;;16.03;12.67;;;4.90;99.90;;;;;;5056399;28;20474;-68
2022/11/27 03:06:08;;;;;;;23.83;13.53;;;4.90;99.90;;;;;;5057613;28;20958;-67
2022/11/27 03:08:40;;;;;;;18.43;13.60;;;5.00;99.90;;;;;;5062919;28;20989;-68
2022/11/27 03:11:10;;;;;;;26.57;14.37;;;4.90;99.90;;;;;;5059099;28;20467;-69
2022/11/27 03:13:41;;;;;;;20.83;13.73;;;4.90;99.90;;;;;;5061017;28;20462;-70
2022/11/27 03:16:15;;;;;;;16.83;13.70;;;5.00;99.90;;;;;;5062724;28;20459;-71
2022/11/27 03:18:52;;;;;;;18.23;13.70;;;5.00;99.90;;;;;;5064140;28;20556;-70
2022/11/27 03:21:27;;;;;;;18.53;14.30;;;5.00;99.90;;;;;;5058326;28;20518;-70
2022/11/27 03:23:54;;;;;;;19.80;14.00;;;5.00;99.90;;;;;;5055889;28;20466;-70
2022/11/27 03:26:21;;;;;;;17.63;13.70;;;5.00;99.90;;;;;;5059653;28;21008;-70
2022/11/27 03:28:50;;;;;;;21.20;14.47;;;5.00;99.90;;;;;;5055945;28;20459;-68
2022/11/27 03:31:20;;;;;;;15.30;13.40;;;5.00;99.90;;;;;;5061031;28;20476;-71
2022/11/27 03:33:47;;;;;;;14.03;12.70;;;5.10;99.90;;;;;;5061816;28;20946;-70
2022/11/27 03:36:17;;;;;;;16.23;14.17;;;5.10;99.90;;;;;;5059030;28;21000;-68
2022/11/27 03:38:45;;;;;;;14.50;13.37;;;5.10;99.90;;;;;;5056890;28;20468;-70
2022/11/27 03:41:19;;;;;;;15.43;13.80;;;5.10;99.90;;;;;;5057414;28;20498;-68
2022/11/27 03:43:56;;;;;;;19.50;13.90;;;5.10;99.90;;;;;;5053229;28;20825;-68
2022/11/27 03:46:30;;;;;;;16.80;13.60;;;5.10;99.90;;;;;;5063502;28;20494;-68
2022/11/27 03:49:01;;;;;;;27.10;14.60;;;5.10;99.90;;;;;;5066130;28;20515;-69
2022/11/27 03:51:38;;;;;;;15.93;13.10;;;5.20;99.90;;;;;;5058512;28;20477;-69
2022/11/27 03:54:12;;;;;;;20.50;14.10;;;5.20;99.90;;;;;;5055212;28;20463;-68
2022/11/27 03:56:41;;;;;;;24.23;13.60;;;5.20;99.90;;;;;;5057741;28;20468;-70
2022/11/27 03:59:13;;;;;;;20.53;13.70;;;5.20;99.90;;;;;;5059634;28;20988;-70
2022/11/27 04:01:42;;;;;;;24.53;13.87;;;5.20;99.90;;;;;;5052556;28;20495;-70
2022/11/27 04:04:09;;;;;;;14.93;12.73;;;5.30;99.90;;;;;;5055206;28;20468;-68
2022/11/27 04:06:35;;;;;;;21.00;14.90;;;5.30;99.90;;;;;;5057954;28;21063;-68
2022/11/27 04:09:02;;;;;;;18.70;12.37;;;5.30;99.90;;;;;;5059766;28;20769;-70
2022/11/27 04:11:29;;;;;;;16.80;13.60;;;5.30;99.90;;;;;;5058127;28;20502;-71
2022/11/27 04:13:56;;;;;;;21.10;12.67;;;5.30;99.90;;;;;;5061085;28;20880;-71
2022/11/27 04:16:24;;;;;;;25.53;14.07;;;5.30;99.90;;;;;;5052712;28;20471;-71
2022/11/27 04:18:52;;;;;;;17.00;13.63;;;5.30;99.90;;;;;;5053736;28;20858;-70
2022/11/27 04:21:19;;;;;;;14.80;13.30;;;5.30;99.90;;;;;;5058900;28;20496;-68
2022/11/27 04:24:01;;;;;;;16.73;14.33;;;5.40;99.90;;;;;;5059222;28;20472;-68
2022/11/27 04:26:28;;;;;;;16.80;14.30;;;5.30;99.90;;;;;;5061298;28;20846;-67
2022/11/27 04:28:55;;;;;;;18.97;14.13;;;5.40;99.90;;;;;;5060467;28;20463;-70
2022/11/27 04:31:22;;;;;;;14.67;12.67;;;5.40;99.90;;;;;;5057251;28;20474;-68
2022/11/27 04:33:50;;;;;;;15.97;13.33;;;5.40;99.90;;;;;;5051259;28;20467;-71
2022/11/27 04:36:18;;;;;;;19.53;13.63;;;5.40;99.90;;;;;;5058935;28;20754;-69
2022/11/27 04:38:44;;;;;;;20.17;13.83;;;5.40;99.90;;;;;;5059798;28;20469;-69
2022/11/27 04:41:11;;;;;;;21.10;14.00;;;5.40;99.90;;;;;;5060869;28;20791;-68
2022/11/27 04:43:38;;;;;;;18.63;12.60;;;5.40;99.90;;;;;;5055090;28;20977;-70
2022/11/27 04:46:05;;;;;;;13.27;11.90;;;5.40;99.90;;;;;;5059034;28;20487;-69
2022/11/27 04:48:31;;;;;;;14.83;13.13;;;5.40;99.90;;;;;;5050794;28;20578;-71
2022/11/27 04:50:58;;;;;;;15.50;12.87;;;5.40;99.90;;;;;;5056410;28;20967;-67
2022/11/27 04:53:26;;;;;;;18.40;13.10;;;5.50;99.90;;;;;;5062353;28;20460;-68
2022/11/27 04:55:53;;;;;;;19.13;13.83;;;5.50;99.90;;;;;;5056085;28;20468;-68
2022/11/27 04:58:20;;;;;;;24.57;12.80;;;5.50;99.90;;;;;;5053413;28;20453;-71
2022/11/27 05:00:47;;;;;;;18.57;13.97;;;5.50;99.90;;;;;;5061020;28;20484;-71
2022/11/27 05:03:15;;;;;;;17.23;13.07;;;5.40;99.90;;;;;;5059606;28;20510;-68
2022/11/27 05:05:41;;;;;;;14.73;13.23;;;5.50;99.90;;;;;;5062317;28;20505;-71
2022/11/27 05:08:08;;;;;;;20.27;14.00;;;5.50;99.90;;;;;;5056522;28;21053;-71
2022/11/27 05:10:37;;;;;;;17.20;12.33;;;5.50;99.90;;;;;;5050095;28;20475;-68
2022/11/27 05:13:05;;;;;;;18.43;15.00;;;5.50;99.90;;;;;;5060564;28;20485;-70
2022/11/27 05:15:32;;;;;;;14.70;13.30;;;5.50;99.90;;;;;;5062604;28;20465;-68
2022/11/27 05:17:59;;;;;;;17.50;12.87;;;5.50;99.90;;;;;;5067155;28;20466;-69
2022/11/27 05:20:26;;;;;;;14.00;12.70;;;5.50;99.90;;;;;;5062751;28;20578;-69
2022/11/27 05:22:55;;;;;;;24.20;13.57;;;5.40;99.90;;;;;;5058805;28;20472;-69
2022/11/27 05:25:22;;;;;;;27.73;13.60;;;5.50;99.90;;;;;;5056439;28;20455;-71
2022/11/27 05:27:50;;;;;;;15.80;13.07;;;5.40;99.90;;;;;;5059762;28;20464;-70
2022/11/27 05:30:17;;;;;;;14.83;13.40;;;5.50;99.90;;;;;;5063071;28;20463;-70
2022/11/27 05:32:45;;;;;;;24.07;13.57;;;5.50;99.90;;;;;;5069093;28;20462;-70
2022/11/27 05:35:11;;;;;;;18.70;13.40;;;5.40;99.90;;;;;;5064415;28;20508;-68
2022/11/27 05:37:38;;;;;;;17.50;13.93;;;5.40;99.90;;;;;;5060121;28;20468;-68
2022/11/27 05:40:07;;;;;;;20.53;13.13;;;5.40;99.90;;;;;;5066033;28;20900;-72
2022/11/27 05:42:34;;;;;;;17.40;13.13;;;5.50;99.90;;;;;;5059286;28;20458;-70
2022/11/27 05:45:02;;;;;;;21.80;14.20;;;5.50;99.90;;;;;;5064302;28;20460;-68
2022/11/27 05:47:29;;;;;;;22.03;14.60;;;5.50;99.90;;;;;;5063779;28;20876;-68
2022/11/27 05:49:56;;;;;;;21.07;13.40;;;5.50;99.90;;;;;;5059825;28;20975;-68
2022/11/27 05:52:23;;;;;;;17.80;13.87;;;5.40;99.90;;;;;;5061366;28;20468;-72
2022/11/27 05:54:50;;;;;;;16.70;12.70;;;5.50;99.90;;;;;;5062708;28;20469;-70
2022/11/27 05:57:17;;;;;;;23.50;14.20;;;5.40;99.90;;;;;;5060348;28;20990;-70
2022/11/27 05:59:44;;;;;;;14.37;13.07;;;5.40;99.90;;;;;;5069267;28;20471;-68
2022/11/27 06:02:13;;;;;;;15.67;14.00;;;5.40;99.90;;;;;;5072967;28;20481;-72
2022/11/27 06:04:40;;;;;;;16.43;14.20;;;5.40;99.90;;;;;;5066658;28;20488;-71
2022/11/27 06:07:08;;;;;;;26.67;14.40;;;5.40;99.90;;;;;;5059914;28;20495;-68
2022/11/27 06:09:37;;;;;;;18.23;13.87;;;5.40;99.90;;;;;;5065889;28;20496;-72
2022/11/27 06:12:04;;;;;;;18.97;13.57;;;5.40;99.90;;;;;;5059463;28;20467;-69
2022/11/27 06:14:33;;;;;;;18.60;13.33;;;5.40;99.90;;;;;;5071759;28;20896;-72
2022/11/27 06:17:01;;;;;;;16.17;13.50;;;5.50;99.90;;;;;;5065159;28;20464;-68
2022/11/27 06:19:30;;;;;;;15.10;13.60;;;5.50;99.90;;;;;;5061196;28;20555;-68
2022/11/27 06:21:57;;;;;;;15.27;13.30;;;5.50;99.90;;;;;;5061364;28;20479;-69
2022/11/27 06:24:24;;;;;;;17.00;15.13;;;5.50;99.90;;;;;;5061454;28;20805;-69
2022/11/27 06:26:51;;;;;;;18.93;13.40;;;5.50;99.90;;;;;;5059314;28;20460;-69
2022/11/27 06:29:18;;;;;;;14.97;13.43;;;5.50;99.90;;;;;;5060524;28;20471;-70
2022/11/27 06:31:44;;;;;;;14.13;12.83;;;5.50;99.90;;;;;;5070019;28;20784;-70
2022/11/27 06:34:12;;;;;;;13.90;12.30;;;5.50;99.90;;;;;;5068233;28;20891;-70
2022/11/27 06:36:40;;;;;;;19.80;14.10;;;5.50;99.90;;;;;;5063512;28;20467;-71
2022/11/27 06:39:09;;;;;;;22.23;13.73;;;5.50;99.90;;;;;;5054784;28;20471;-68
2022/11/27 06:41:36;;;;;;;15.50;12.77;;;5.50;99.90;;;;;;5058337;28;20499;-67
2022/11/27 06:44:04;;;;;;;16.13;13.47;;;5.60;99.90;;;;;;5063574;28;20471;-70
2022/11/27 06:46:33;;;;;;;20.17;13.37;;;5.50;99.90;;;;;;5063442;28;20473;-68
2022/11/27 06:49:01;;;;;;;27.70;14.60;;;5.60;99.90;;;;;;5056257;28;20468;-69
2022/11/27 06:51:30;;;;;;;22.57;14.20;;;5.60;99.90;;;;;;5060364;28;20942;-69
2022/11/27 06:54:00;;;;;;;16.73;14.57;;;5.60;99.90;;;;;;5059378;28;20459;-68
2022/11/27 06:56:29;;;;;;;16.50;14.07;;;5.70;99.90;;;;;;5053479;28;20468;-71
2022/11/27 06:58:58;;;;;;;17.87;14.27;;;5.80;99.90;;;;;;5061441;28;20955;-70
2022/11/27 07:01:26;;;;;;;16.43;14.70;;;5.80;99.90;;;;;;5065887;28;20506;-72
2022/11/27 07:03:54;;;;;;;15.20;13.70;;;5.80;99.90;;;;;;5052526;28;20464;-69
2022/11/27 07:06:23;;;;;;;17.00;14.20;;;5.80;99.90;;;;;;5054545;28;20495;-71
2022/11/27 07:08:49;;;;;;;27.10;14.67;;;5.80;99.90;;;;;;5061029;28;20810;-72
2022/11/27 07:11:20;;;;;;;16.13;14.50;;;5.90;99.90;;;;;;5061398;28;20463;-70
2022/11/27 07:13:49;;;;;;;15.40;14.00;;;5.90;99.90;;;;;;5056748;28;20858;-68
2022/11/27 07:16:17;;;;;;;26.80;14.60;;;5.90;99.90;;;;;;5064676;28;20463;-70
2022/11/27 07:18:47;;;;;;;19.03;14.67;;;6.00;99.90;;;;;;5058058;28;20970;-72
2022/11/27 07:21:15;;;;;;;15.70;13.83;;;6.00;99.90;;;;;;5056298;28;20513;-72
2022/11/27 07:23:43;;;;;;;15.60;13.97;;;6.00;99.90;;;;;;5054993;28;20464;-68
2022/11/27 07:26:12;;;;;;;17.33;15.10;;;6.00;99.90;;;;;;5053225;28;20475;-70
2022/11/27 07:28:42;;;;;;;23.37;14.37;;;6.10;99.90;;;;;;5060583;28;20512;-72
2022/11/27 07:31:09;;;;;;;21.27;14.63;;;6.10;99.90;;;;;;5057126;28;20956;-71
2022/11/27 07:33:36;;;;;;;17.37;14.77;;;6.10;99.90;;;;;;5057299;28;20474;-70
2022/11/27 07:36:06;;;;;;;14.97;13.77;;;6.00;99.90;;;;;;5065561;28;20834;-72
2022/11/27 07:38:33;;;;;;;28.33;16.60;;;6.00;99.90;;;;;;5059567;28;20473;-71
2022/11/27 07:41:01;;;;;;;18.93;14.73;;;6.00;99.90;;;;;;5061948;28;20483;-70
2022/11/27 07:43:28;;;;;;;25.47;14.27;;;6.10;99.90;;;;;;5060945;28;20459;-71
2022/11/27 07:45:56;;;;;;;18.13;14.03;;;6.20;99.90;;;;;;5053049;28;20571;-70
2022/11/27 07:48:23;;;;;;;19.10;15.60;;;6.20;99.90;;;;;;5063084;28;20793;-72
2022/11/27 07:50:51;;;;;;;19.20;14.97;;;6.30;99.90;;;;;;5061969;28;20520;-71
2022/11/27 07:53:18;;;;;;;20.87;14.60;;;6.20;99.90;;;;;;5065996;28;20462;-72
2022/11/27 07:55:45;;;;;;;19.90;14.77;;;6.40;99.90;;;;;;5066672;28;20478;-72
2022/11/27 07:58:12;;;;;;;16.67;14.63;;;6.50;99.90;;;;;;5066208;28;20482;-70
2022/11/27 08:00:39;;;;;;;15.00;13.60;;;6.60;99.90;;;;;;5048720;28;20469;-69
2022/11/27 08:03:07;;;;;;;15.33;13.73;;;6.60;99.90;;;;;;5049402;28;20486;-70
2022/11/27 08:05:35;;;;;;;17.63;14.67;;;6.70;99.90;;;;;;5058164;28;21053;-68
2022/11/27 08:08:03;;;;;;;15.87;14.27;;;6.80;99.90;;;;;;5060306;28;20462;-71
2022/11/27 08:10:31;;;;;;;20.23;14.57;;;6.90;99.90;;;;;;5063849;28;20551;-69
2022/11/27 08:12:58;;;;;;;15.13;13.87;;;7.00;99.90;;;;;;5063952;28;20959;-72
2022/11/27 08:15:25;;;;;;;15.23;13.27;;;7.10;99.90;;;;;;5063718;28;20466;-69
2022/11/27 08:17:51;;;;;;;15.47;14.17;;;7.20;99.90;;;;;;5057753;28;20463;-70
2022/11/27 08:20:20;;;;;;;19.27;15.33;;;7.30;99.90;;;;;;5056259;28;20459;-70
2022/11/27 08:22:47;;;;;;;15.87;14.40;;;7.30;99.90;;;;;;5052740;28;20501;-72
2022/11/27 08:25:13;;;;;;;15.50;14.23;;;7.20;99.90;;;;;;5047521;28;20917;-71
2022/11/27 08:27:41;;;;;;;15.37;14.07;;;7.20;99.90;;;;;;5059933;28;20550;-68
2022/11/27 08:30:09;;;;;;;16.67;15.00;;;7.30;99.90;;;;;;5061021;28;20469;-71
2022/11/27 08:32:38;;;;;;;14.63;13.43;;;7.20;99.90;;;;;;5055254;28;20473;-71
2022/11/27 08:35:06;;;;;;;17.93;15.17;;;7.30;99.90;;;;;;5059300;28;20475;-70
2022/11/27 08:37:35;;;;;;;19.47;16.50;;;7.30;99.90;;;;;;5066142;28;20469;-69
2022/11/27 08:40:02;;;;;;;16.73;15.33;;;7.20;99.90;;;;;;5059255;28;20489;-70
2022/11/27 08:42:29;;;;;;;15.87;14.47;;;7.20;99.90;;;;;;5064089;28;20588;-69
2022/11/27 08:44:56;;;;;;;15.90;14.60;;;7.20;99.90;;;;;;5054237;28;20459;-71
2022/11/27 08:47:23;;;;;;;15.17;13.77;;;7.20;99.90;;;;;;5061145;28;20473;-73
2022/11/27 08:49:50;;;;;;;15.63;14.33;;;7.30;99.90;;;;;;5059771;28;20475;-71
2022/11/27 08:52:17;;;;;;;15.33;14.07;;;7.30;99.90;;;;;;5051903;28;20460;-72
2022/11/27 08:54:46;;;;;;;18.53;16.20;;;7.30;99.90;;;;;;5060844;28;21310;-72
2022/11/27 08:57:13;;;;;;;14.87;13.83;;;7.40;99.90;;;;;;5052007;28;20463;-72
2022/11/27 08:59:39;;;;;;;15.57;14.40;;;7.50;99.90;;;;;;5059390;28;20466;-71
2022/11/27 09:02:07;;;;;;;16.40;14.90;;;7.40;99.90;;;;;;5059157;28;20494;-71
2022/11/27 09:04:34;;;;;;;15.90;14.50;;;7.50;99.90;;;;;;5060265;28;20496;-72
2022/11/27 09:07:01;;;;;;;15.43;14.20;;;7.50;99.90;;;;;;5061745;28;20915;-71
2022/11/27 09:09:28;;;;;;;16.30;14.60;;;7.50;99.90;;;;;;5055318;28;20469;-69
2022/11/27 09:11:56;;;;;;;16.70;14.10;;;7.60;99.90;;;;;;5052743;28;20506;-73
2022/11/27 09:14:23;;;;;;;14.40;13.23;;;7.60;99.90;;;;;;5060643;28;20498;-69
2022/11/27 09:16:50;;;;;;;22.43;14.27;;;7.60;99.90;;;;;;5054322;28;20467;-70
2022/11/27 09:19:17;;;;;;;15.87;14.37;;;7.80;99.90;;;;;;5055505;28;20988;-70
2022/11/27 09:21:43;;;;;;;14.80;13.17;;;7.60;99.90;;;;;;5061374;28;20504;-69
2022/11/27 09:24:10;;;;;;;16.80;14.17;;;7.60;99.90;;;;;;5055146;28;20466;-71
2022/11/27 09:26:38;;;;;;;15.80;14.50;;;7.50;99.90;;;;;;5050906;28;20465;-70
2022/11/27 09:29:07;;;;;;;15.37;14.00;;;7.60;99.90;;;;;;5054848;28;20471;-72
2022/11/27 09:31:34;;;;;;;14.70;13.50;;;7.60;99.90;;;;;;5048496;28;20468;-71
2022/11/27 09:34:00;;;;;;;15.60;13.77;;;7.60;99.90;;;;;;5058057;28;20967;-71
2022/11/27 09:36:28;;;;;;;16.20;14.43;;;7.70;99.90;;;;;;5053995;28;20459;-72
2022/11/27 09:38:55;;;;;;;16.40;14.90;;;7.70;99.90;;;;;;5058826;28;20463;-68
2022/11/27 09:41:45;;;;;;;15.97;14.77;;;7.80;99.90;;;;;;5060942;28;20976;-69
2022/11/27 09:44:37;;;;;;;16.17;14.50;;;7.80;99.90;;;;;;5063086;28;20834;-69
2022/11/27 09:47:12;;;;;;;14.10;13.30;;;7.90;99.90;;;;;;5063633;28;20481;-71
2022/11/27 09:49:43;;;;;;;16.37;14.90;;;7.90;99.90;;;;;;5057320;28;20465;-72
2022/11/27 09:52:19;;;;;;;15.23;13.93;;;8.00;99.90;;;;;;5062121;28;20593;-72
2022/11/27 09:54:54;;;;;;;17.03;15.37;;;8.10;99.90;;;;;;5063438;28;20475;-71
2022/11/27 09:57:27;;;;;;;15.90;14.50;;;8.10;99.90;;;;;;5060966;28;20519;-71
2022/11/27 10:00:01;;;;;;;15.23;13.90;;;8.10;99.90;;;;;;5060860;28;21035;-69
2022/11/27 10:02:31;;;;;;;14.53;13.53;;;8.10;99.90;;;;;;5066065;28;20492;-72
2022/11/27 10:04:59;;;;;;;16.03;14.43;;;8.10;99.90;;;;;;5065571;28;20494;-68
2022/11/27 10:07:37;;;;;;;16.10;14.90;;;8.00;99.90;;;;;;5069666;28;20473;-71
2022/11/27 10:10:16;;;;;;;16.30;15.03;;;8.00;99.90;;;;;;5063510;28;20498;-68
2022/11/27 10:13:00;;;;;;;18.27;16.60;;;7.90;99.90;;;;;;5055307;28;20480;-68
2022/11/27 10:15:37;;;;;;;16.70;15.50;;;7.90;99.90;;;;;;5050025;28;21053;-68
2022/11/27 10:18:11;;;;;;;16.17;14.73;;;7.90;99.90;;;;;;5067198;28;20464;-67
2022/11/27 10:20:43;;;;;;;20.30;15.00;;;7.80;99.90;;;;;;5066791;28;20460;-70
2022/11/27 10:23:18;;;;;;;18.73;17.43;;;7.90;99.90;;;;;;5062297;28;20529;-67
2022/11/27 10:25:49;;;;;;;18.83;17.30;;;7.80;99.90;;;;;;5056610;28;20940;-69
2022/11/27 10:28:28;;;;;;;18.30;16.63;;;7.80;99.90;;;;;;5059965;28;20454;-69
2022/11/27 10:31:02;;;;;;;18.10;16.77;;;7.80;99.90;;;;;;5068952;28;20461;-68
2022/11/27 10:33:38;;;;;;;17.43;16.10;;;7.80;99.90;;;;;;5064516;28;20504;-71
2022/11/27 10:36:10;;;;;;;18.40;17.17;;;7.80;99.90;;;;;;5073134;28;20468;-71
2022/11/27 10:38:40;;;;;;;16.50;15.40;;;7.80;99.90;;;;;;5052772;28;20971;-70
2022/11/27 10:41:12;;;;;;;16.47;15.10;;;7.90;99.90;;;;;;5063272;28;20470;-69
2022/11/27 10:43:39;;;;;;;14.93;14.03;;;8.00;99.90;;;;;;5064910;28;20543;-70
2022/11/27 10:46:13;;;;;;;16.73;15.17;;;8.00;99.90;;;;;;5067117;28;20489;-68
2022/11/27 10:48:40;;;;;;;14.27;13.07;;;8.10;99.90;;;;;;5070784;28;20485;-68
2022/11/27 10:51:14;;;;;;;17.10;13.83;;;8.20;99.90;;;;;;5066084;28;20466;-72
2022/11/27 10:53:43;;;;;;;14.83;13.87;;;8.30;99.90;;;;;;5059949;28;20458;-70
2022/11/27 10:56:31;;;;;;;14.80;13.50;;;8.40;99.90;;;;;;5065221;28;20447;-68
2022/11/27 10:59:00;;;;;;;15.53;14.00;;;8.50;99.90;;;;;;5053090;28;20485;-70
2022/11/27 11:01:42;;;;;;;14.40;13.17;;;8.70;99.90;;;;;;5050811;28;20466;-71
2022/11/27 11:04:11;;;;;;;16.10;14.50;;;8.70;99.90;;;;;;5052164;28;20466;-73
2022/11/27 11:06:41;;;;;;;14.67;13.70;;;8.70;99.90;;;;;;5061567;28;20521;-70
2022/11/27 11:09:14;;;;;;;15.03;13.93;;;8.80;99.90;;;;;;5050081;28;20457;-70
2022/11/27 11:11:41;;;;;;;15.10;13.90;;;8.90;99.90;;;;;;5061283;28;20465;-69
2022/11/27 11:14:16;;;;;;;15.77;14.57;;;9.00;99.90;;;;;;5056134;28;20499;-69
2022/11/27 11:16:46;;;;;;;15.40;14.50;;;8.90;99.90;;;;;;5048743;28;20506;-70
2022/11/27 11:19:23;;;;;;;15.63;14.60;;;9.00;99.90;;;;;;5058970;28;20470;-71
2022/11/27 11:21:50;;;;;;;14.63;13.73;;;9.10;99.90;;;;;;5057278;28;21002;-72
2022/11/27 11:24:25;;;;;;;15.40;14.40;;;9.10;99.90;;;;;;5063299;28;20459;-70
2022/11/27 11:26:55;;;;;;;14.90;13.93;;;9.10;99.90;;;;;;5061414;28;20562;-72
2022/11/27 11:29:32;;;;;;;15.23;14.30;;;9.20;99.90;;;;;;5057598;28;20557;-71
2022/11/27 11:32:08;;;;;;;16.37;15.03;;;9.20;99.90;;;;;;5059699;28;20473;-71
2022/11/27 11:34:36;;;;;;;16.53;14.80;;;9.30;99.90;;;;;;5055610;28;20462;-70
2022/11/27 11:37:06;;;;;;;15.23;14.23;;;9.40;99.90;;;;;;5065095;28;20469;-68
2022/11/27 11:39:38;;;;;;;15.10;14.10;;;9.50;99.90;;;;;;5055909;28;20465;-70
2022/11/27 11:42:10;;;;;;;16.70;15.37;;;9.50;99.90;;;;;;5053232;28;20467;-73
2022/11/27 11:44:38;;;;;;;15.00;14.10;;;9.60;99.90;;;;;;5052512;28;20564;-72
2022/11/27 11:47:15;;;;;;;15.03;14.20;;;9.70;99.90;;;;;;5060066;28;20491;-70
2022/11/27 11:49:41;;;;;;;15.63;14.63;;;9.70;99.90;;;;;;5055035;28;20462;-71
2022/11/27 11:52:25;;;;;;;15.47;14.17;;;9.90;99.90;;;;;;5058634;28;21031;-72
2022/11/27 11:54:59;;;;;;;15.90;14.53;;;10.00;99.90;;;;;;5061170;28;21033;-70
2022/11/27 11:57:58;;;;;;;14.67;13.80;;;10.10;99.90;;;;;;5057068;28;20953;-72
2022/11/27 12:00:35;;;;;;;13.80;13.00;;;10.20;99.90;;;;;;5054319;28;20462;-70
2022/11/27 12:03:23;;;;;;;15.53;14.67;;;10.10;99.90;;;;;;5051041;28;21314;-70
2022/11/27 12:06:06;;;;;;;16.57;15.37;;;10.20;99.90;;;;;;5059569;28;20494;-71
2022/11/27 12:08:49;;;;;;;17.03;15.40;;;10.10;99.90;;;;;;5056438;28;20462;-70
2022/11/27 12:11:21;;;;;;;15.40;14.20;;;10.00;99.90;;;;;;5050399;28;20557;-73
2022/11/27 12:13:57;;;;;;;21.63;14.33;;;10.00;99.90;;;;;;5063981;28;21004;-70
2022/11/27 12:16:32;;;;;;;15.27;14.23;;;9.90;99.90;;;;;;5060946;28;20470;-72
2022/11/27 12:19:25;;;;;;;15.10;13.90;;;10.00;99.90;;;;;;5058404;28;20493;-71
2022/11/27 12:22:02;;;;;;;14.50;13.60;;;10.00;99.90;;;;;;5055270;28;20467;-73
2022/11/27 12:24:40;;;;;;;15.97;14.87;;;9.90;99.90;;;;;;5053193;28;20949;-70
2022/11/27 12:27:20;;;;;;;15.93;14.60;;;10.00;99.90;;;;;;5061381;28;20965;-70
2022/11/27 12:30:12;;;;;;;15.77;14.57;;;10.00;99.90;;;;;;5058700;28;20969;-69
2022/11/27 12:33:09;;;;;;;16.40;15.00;;;9.90;99.90;;;;;;5041907;28;21032;-69
2022/11/27 12:35:43;;;;;;;15.70;14.63;;;9.90;99.90;;;;;;5060709;28;20466;-70
2022/11/27 12:38:30;;;;;;;16.13;14.60;;;9.90;99.90;;;;;;5059232;28;20454;-70
2022/11/27 12:41:25;;;;;;;14.37;13.57;;;9.70;99.90;;;;;;5059781;28;20457;-70
2022/11/27 12:43:58;;;;;;;15.80;14.70;;;9.70;99.90;;;;;;5053182;28;20495;-70
2022/11/27 12:46:33;;;;;;;17.63;13.90;;;9.80;99.90;;;;;;5055294;28;20498;-70
2022/11/27 12:49:05;;;;;;;16.30;14.90;;;9.80;99.90;;;;;;5052995;28;20470;-70
2022/11/27 12:51:41;;;;;;;15.70;14.47;;;9.80;99.90;;;;;;5051106;28;20486;-70